Time;durP1;ratioP1;P1;durP2;ratioP2;P2;SDS_P1;SDS_P2;PMS_P1;PMS_P2;Temp;Humidity;BMP_temperature;BMP_pressure;BME280_temperature;BME280_humidity;BME280_pressure;Samples;Min_cycle;Max_cycle;Signal;HPM_P1;HPM_P2
2021/10/19 00:00:08;;;;;;;32.87;19.80;;;8.30;85.10;;;;;;5068516;28;20453;-44
2021/10/19 00:02:36;;;;;;;34.37;20.70;;;8.30;85.20;;;;;;5091191;28;20453;-43
2021/10/19 00:05:07;;;;;;;34.20;21.10;;;8.30;85.30;;;;;;5090858;28;20506;-44
2021/10/19 00:07:33;;;;;;;30.67;21.13;;;8.30;85.30;;;;;;5088238;28;20448;-44
2021/10/19 00:10:00;;;;;;;27.13;19.33;;;8.30;85.30;;;;;;5068312;28;20477;-44
2021/10/19 00:12:27;;;;;;;32.67;19.67;;;8.30;85.40;;;;;;5072213;28;20454;-44
2021/10/19 00:14:54;;;;;;;36.10;20.67;;;8.30;85.40;;;;;;5089193;28;20441;-44
2021/10/19 00:17:20;;;;;;;38.90;22.00;;;8.40;85.30;;;;;;5094981;28;20455;-44
2021/10/19 00:19:47;;;;;;;33.73;19.97;;;8.40;85.40;;;;;;5086814;28;20453;-44
2021/10/19 00:22:14;;;;;;;33.20;21.00;;;8.40;85.30;;;;;;5089651;28;20469;-44
2021/10/19 00:24:41;;;;;;;34.37;20.30;;;8.40;85.40;;;;;;5087107;28;20452;-44
2021/10/19 00:27:08;;;;;;;33.37;22.47;;;8.40;85.40;;;;;;5087302;28;20452;-44
2021/10/19 00:29:34;;;;;;;31.57;18.73;;;8.40;85.60;;;;;;5088259;28;20490;-44
2021/10/19 00:32:01;;;;;;;33.60;20.03;;;8.40;85.50;;;;;;5086439;28;20446;-44
2021/10/19 00:34:30;;;;;;;28.23;19.03;;;8.40;85.70;;;;;;5087791;28;20464;-44
2021/10/19 00:36:57;;;;;;;32.40;21.10;;;8.40;85.70;;;;;;5086559;28;20468;-44
2021/10/19 00:39:24;;;;;;;30.47;19.50;;;8.40;85.70;;;;;;5091417;28;20450;-44
2021/10/19 00:41:51;;;;;;;34.23;20.13;;;8.40;85.80;;;;;;5086942;28;20544;-44
2021/10/19 00:44:17;;;;;;;31.53;19.90;;;8.40;85.90;;;;;;5069129;28;20445;-44
2021/10/19 00:46:44;;;;;;;30.83;19.60;;;8.40;85.90;;;;;;5088516;28;20991;-44
2021/10/19 00:49:11;;;;;;;32.07;18.87;;;8.40;85.90;;;;;;5085046;28;20576;-44
2021/10/19 00:51:38;;;;;;;33.03;19.93;;;8.40;85.90;;;;;;5088072;28;20449;-44
2021/10/19 00:54:05;;;;;;;33.60;19.07;;;8.40;85.90;;;;;;5087453;28;20521;-44
2021/10/19 00:56:34;;;;;;;29.07;18.83;;;8.40;86.00;;;;;;5089792;28;20803;-44
2021/10/19 00:59:01;;;;;;;31.03;20.90;;;8.50;86.10;;;;;;5084357;28;20449;-44
2021/10/19 01:01:27;;;;;;;34.40;20.13;;;8.50;86.10;;;;;;5084925;28;20449;-44
2021/10/19 01:03:54;;;;;;;32.13;18.67;;;8.50;86.10;;;;;;5089339;28;20824;-44
2021/10/19 01:06:21;;;;;;;32.83;21.30;;;8.50;86.10;;;;;;5072174;28;20982;-44
2021/10/19 01:08:49;;;;;;;27.80;18.60;;;8.50;86.20;;;;;;5091582;28;20540;-45
2021/10/19 01:11:16;;;;;;;32.47;18.83;;;8.50;86.20;;;;;;5085910;28;20487;-45
2021/10/19 01:13:42;;;;;;;33.77;19.77;;;8.50;86.20;;;;;;5088188;28;20441;-45
2021/10/19 01:16:11;;;;;;;33.03;20.47;;;8.50;86.20;;;;;;5083781;28;21014;-45
2021/10/19 01:18:39;;;;;;;29.87;20.10;;;8.50;86.30;;;;;;5088084;28;20814;-45
2021/10/19 01:21:07;;;;;;;33.20;20.73;;;8.50;86.20;;;;;;5089559;28;20521;-45
2021/10/19 01:23:34;;;;;;;28.10;20.23;;;8.50;86.20;;;;;;5087445;28;20529;-45
2021/10/19 01:26:06;;;;;;;35.83;20.00;;;8.50;86.30;;;;;;5089659;28;20471;-45
2021/10/19 01:28:37;;;;;;;37.20;22.47;;;8.50;86.30;;;;;;5083802;28;20461;-45
2021/10/19 01:31:05;;;;;;;39.60;23.43;;;8.60;86.30;;;;;;5087360;28;20567;-45
2021/10/19 01:33:33;;;;;;;40.37;23.57;;;8.60;86.40;;;;;;5072726;28;20453;-45
2021/10/19 01:36:01;;;;;;;36.30;23.17;;;8.60;86.20;;;;;;5069436;28;20834;-44
2021/10/19 01:38:29;;;;;;;34.10;21.60;;;8.60;86.20;;;;;;5090508;28;20445;-44
2021/10/19 01:40:57;;;;;;;32.97;22.03;;;8.60;86.30;;;;;;5085575;28;20821;-44
2021/10/19 01:43:25;;;;;;;36.53;20.57;;;8.60;86.30;;;;;;5088158;28;20545;-45
2021/10/19 01:45:59;;;;;;;32.60;19.97;;;8.60;86.30;;;;;;5083527;28;20453;-45
2021/10/19 01:48:31;;;;;;;32.80;21.43;;;8.60;86.40;;;;;;5084354;28;20455;-45
2021/10/19 01:50:59;;;;;;;32.93;22.03;;;8.60;86.40;;;;;;5086146;28;20488;-44
2021/10/19 01:53:26;;;;;;;33.40;20.50;;;8.60;86.30;;;;;;5084417;28;20808;-45
2021/10/19 01:55:53;;;;;;;34.37;20.80;;;8.60;86.40;;;;;;5058676;28;20449;-45
2021/10/19 01:58:24;;;;;;;30.00;20.60;;;8.60;86.30;;;;;;5086066;28;20806;-45
2021/10/19 02:00:53;;;;;;;34.63;20.60;;;8.60;86.40;;;;;;5087102;28;20510;-45
2021/10/19 02:03:21;;;;;;;28.67;18.57;;;8.60;86.50;;;;;;5086283;28;21040;-44
2021/10/19 02:05:49;;;;;;;33.63;20.07;;;8.60;86.50;;;;;;5081574;28;20462;-45
2021/10/19 02:08:15;;;;;;;32.17;19.60;;;8.60;86.50;;;;;;5087837;28;20513;-45
2021/10/19 02:10:42;;;;;;;32.20;20.43;;;8.60;86.50;;;;;;5083192;28;20513;-45
2021/10/19 02:13:09;;;;;;;33.03;20.30;;;8.60;86.60;;;;;;5088404;28;20825;-45
2021/10/19 02:15:37;;;;;;;32.90;19.67;;;8.60;86.60;;;;;;5084212;28;20548;-45
2021/10/19 02:18:05;;;;;;;31.17;19.37;;;8.60;86.60;;;;;;5086727;28;20453;-45
2021/10/19 02:20:33;;;;;;;31.17;20.93;;;8.60;86.70;;;;;;5092618;28;20452;-45
2021/10/19 02:23:00;;;;;;;28.53;19.27;;;8.60;86.70;;;;;;5086181;28;20542;-45
2021/10/19 02:25:27;;;;;;;29.43;18.67;;;8.70;86.60;;;;;;5085669;28;20452;-45
2021/10/19 02:27:55;;;;;;;28.97;18.60;;;8.70;86.60;;;;;;5067795;28;20453;-45
2021/10/19 02:30:23;;;;;;;27.87;18.17;;;8.70;86.60;;;;;;5089986;28;20480;-45
2021/10/19 02:32:50;;;;;;;27.87;19.47;;;8.70;86.70;;;;;;5086073;28;20445;-45
2021/10/19 02:35:18;;;;;;;29.67;19.60;;;8.70;86.80;;;;;;5086893;28;20445;-45
2021/10/19 02:37:45;;;;;;;28.73;19.57;;;8.70;86.80;;;;;;5086402;28;20464;-42
2021/10/19 02:40:15;;;;;;;32.60;20.53;;;8.70;86.80;;;;;;5076651;28;20934;-42
2021/10/19 02:42:43;;;;;;;33.73;19.60;;;8.70;86.90;;;;;;5055816;28;20933;-42
2021/10/19 02:45:10;;;;;;;32.57;19.80;;;8.70;86.90;;;;;;5079424;28;20966;-42
2021/10/19 02:47:39;;;;;;;35.07;19.17;;;8.70;86.90;;;;;;5083876;28;20467;-42
2021/10/19 02:50:08;;;;;;;33.90;20.10;;;8.70;87.00;;;;;;5077961;28;20839;-42
2021/10/19 02:52:34;;;;;;;29.50;19.13;;;8.80;87.00;;;;;;5074247;28;20446;-42
2021/10/19 02:55:01;;;;;;;36.27;19.40;;;8.80;87.00;;;;;;5056225;28;20471;-42
2021/10/19 02:57:29;;;;;;;34.93;20.30;;;8.80;87.00;;;;;;5058379;28;20799;-42
2021/10/19 02:59:57;;;;;;;34.03;20.90;;;8.80;87.00;;;;;;5072941;28;20452;-42
2021/10/19 03:02:23;;;;;;;31.13;18.97;;;8.80;87.10;;;;;;5077004;28;20449;-42
2021/10/19 03:04:51;;;;;;;36.70;20.70;;;8.90;87.30;;;;;;5075299;28;20472;-42
2021/10/19 03:07:18;;;;;;;33.90;20.97;;;8.90;87.30;;;;;;5055792;28;20450;-42
2021/10/19 03:09:45;;;;;;;36.50;24.50;;;8.90;87.40;;;;;;5075213;28;20496;-42
2021/10/19 03:12:11;;;;;;;34.43;20.30;;;8.90;87.50;;;;;;5080893;28;20478;-42
2021/10/19 03:14:38;;;;;;;37.97;23.30;;;8.90;87.60;;;;;;5078697;28;20480;-42
2021/10/19 03:17:05;;;;;;;32.33;22.33;;;8.90;87.70;;;;;;5076204;28;20513;-42
2021/10/19 03:19:31;;;;;;;36.13;23.87;;;9.00;87.70;;;;;;5075932;28;20457;-42
2021/10/19 03:21:58;;;;;;;38.23;23.87;;;9.00;87.80;;;;;;5075054;28;20955;-42
2021/10/19 03:24:25;;;;;;;30.60;22.80;;;9.00;88.00;;;;;;5060366;28;20451;-42
2021/10/19 03:26:51;;;;;;;37.97;25.90;;;9.00;88.20;;;;;;5080954;28;20457;-42
2021/10/19 03:29:19;;;;;;;35.90;23.60;;;9.00;88.30;;;;;;5079052;28;20459;-42
2021/10/19 03:31:46;;;;;;;38.50;23.30;;;9.00;88.40;;;;;;5073489;28;20562;-42
2021/10/19 03:34:12;;;;;;;36.97;25.63;;;9.00;88.50;;;;;;5085021;28;20453;-42
2021/10/19 03:36:39;;;;;;;41.53;24.87;;;9.10;88.60;;;;;;5081943;28;20451;-42
2021/10/19 03:39:06;;;;;;;33.93;24.13;;;9.10;88.70;;;;;;5081055;28;20448;-42
2021/10/19 03:41:33;;;;;;;35.27;23.60;;;9.10;88.60;;;;;;5065985;28;20460;-42
2021/10/19 03:43:59;;;;;;;35.73;23.57;;;9.10;88.70;;;;;;5062931;28;20498;-42
2021/10/19 03:46:26;;;;;;;38.73;26.73;;;9.10;88.70;;;;;;5079465;28;20452;-42
2021/10/19 03:48:53;;;;;;;38.87;24.50;;;9.10;88.80;;;;;;5068493;28;20827;-42
2021/10/19 03:51:20;;;;;;;38.20;26.10;;;9.10;88.90;;;;;;5082043;28;20487;-42
2021/10/19 03:53:46;;;;;;;33.47;23.73;;;9.20;89.00;;;;;;5079481;28;20453;-42
2021/10/19 03:56:13;;;;;;;38.53;23.67;;;9.20;89.00;;;;;;5080644;28;20441;-42
2021/10/19 03:58:40;;;;;;;32.40;24.03;;;9.20;89.20;;;;;;5080274;28;20452;-42
2021/10/19 04:01:06;;;;;;;36.83;25.63;;;9.20;89.00;;;;;;5071235;28;20457;-42
2021/10/19 04:03:34;;;;;;;36.67;25.93;;;9.20;89.00;;;;;;5079224;28;20482;-42
2021/10/19 04:06:00;;;;;;;38.97;25.93;;;9.20;89.00;;;;;;5077153;28;20452;-42
2021/10/19 04:08:27;;;;;;;42.27;27.20;;;9.20;89.10;;;;;;5081601;28;20462;-42
2021/10/19 04:10:54;;;;;;;40.83;25.50;;;9.20;89.20;;;;;;5081343;28;20491;-42
2021/10/19 04:13:21;;;;;;;36.47;23.53;;;9.20;89.20;;;;;;5079887;28;20447;-42
2021/10/19 04:15:48;;;;;;;39.30;25.53;;;9.20;89.30;;;;;;5079358;28;20517;-42
2021/10/19 04:18:14;;;;;;;43.27;26.10;;;9.30;89.30;;;;;;5059248;28;20454;-42
2021/10/19 04:20:41;;;;;;;42.50;29.13;;;9.30;89.30;;;;;;5080452;28;20463;-42
2021/10/19 04:23:08;;;;;;;39.97;25.60;;;9.30;89.40;;;;;;5078196;28;20465;-42
2021/10/19 04:25:35;;;;;;;37.23;25.00;;;9.30;89.50;;;;;;5080037;28;20464;-42
2021/10/19 04:28:02;;;;;;;36.67;24.40;;;9.30;89.60;;;;;;5074942;28;20528;-42
2021/10/19 04:30:29;;;;;;;35.97;25.03;;;9.30;89.60;;;;;;5063280;28;20516;-42
2021/10/19 04:32:55;;;;;;;36.47;25.83;;;9.30;89.70;;;;;;5082643;28;20826;-42
2021/10/19 04:35:26;;;;;;;42.07;25.20;;;9.30;89.80;;;;;;5069091;28;20461;-42
2021/10/19 04:37:53;;;;;;;40.00;25.33;;;9.30;89.80;;;;;;5065710;28;20472;-42
2021/10/19 04:40:20;;;;;;;41.63;25.10;;;9.30;89.80;;;;;;5062541;28;20454;-42
2021/10/19 04:42:47;;;;;;;40.47;26.73;;;9.30;89.80;;;;;;5079614;28;20456;-42
2021/10/19 04:45:16;;;;;;;39.53;24.40;;;9.40;89.80;;;;;;5078513;28;20445;-42
2021/10/19 04:47:45;;;;;;;41.37;25.03;;;9.40;89.80;;;;;;5077015;28;20457;-42
2021/10/19 04:50:11;;;;;;;30.90;21.10;;;9.40;89.80;;;;;;5076901;28;20488;-42
2021/10/19 04:52:38;;;;;;;32.17;23.43;;;9.40;89.80;;;;;;5077448;28;20461;-42
2021/10/19 04:55:05;;;;;;;32.07;22.30;;;9.30;89.70;;;;;;5060398;28;20799;-42
2021/10/19 04:57:32;;;;;;;29.93;21.20;;;9.30;89.80;;;;;;5059996;28;20938;-42
2021/10/19 04:59:59;;;;;;;31.87;23.10;;;9.30;89.80;;;;;;5065995;28;20446;-42
2021/10/19 05:02:26;;;;;;;28.90;22.17;;;9.30;89.80;;;;;;5079053;28;20791;-42
2021/10/19 05:04:53;;;;;;;30.27;20.73;;;9.30;89.80;;;;;;5078534;28;20534;-42
2021/10/19 05:07:19;;;;;;;27.40;20.90;;;9.30;89.80;;;;;;5078604;28;20817;-42
2021/10/19 05:09:46;;;;;;;37.33;22.40;;;9.30;89.80;;;;;;5078705;28;21001;-42
2021/10/19 05:12:13;;;;;;;33.70;23.40;;;9.30;89.80;;;;;;5081533;28;20480;-42
2021/10/19 05:14:40;;;;;;;28.97;20.37;;;9.30;89.80;;;;;;5077898;28;20452;-42
2021/10/19 05:17:06;;;;;;;34.10;21.50;;;9.30;89.80;;;;;;5077778;28;20456;-42
2021/10/19 05:19:33;;;;;;;35.90;22.60;;;9.30;89.80;;;;;;5082855;28;20452;-42
2021/10/19 05:22:00;;;;;;;29.90;21.10;;;9.30;89.80;;;;;;5061162;28;20448;-42
2021/10/19 05:24:26;;;;;;;29.80;19.40;;;9.30;89.80;;;;;;5079207;28;20472;-42
2021/10/19 05:26:53;;;;;;;28.00;19.90;;;9.30;89.80;;;;;;5080579;28;20480;-42
2021/10/19 05:29:20;;;;;;;24.80;18.10;;;9.30;89.80;;;;;;5058037;28;20453;-42
2021/10/19 05:31:47;;;;;;;25.43;17.93;;;9.30;89.80;;;;;;5078261;28;20520;-42
2021/10/19 05:34:13;;;;;;;28.20;18.60;;;9.30;89.80;;;;;;5078594;28;20489;-42
2021/10/19 05:36:40;;;;;;;21.57;17.43;;;9.30;89.80;;;;;;5061302;28;20454;-42
2021/10/19 05:39:07;;;;;;;23.87;17.77;;;9.30;89.80;;;;;;5063506;28;20454;-42
2021/10/19 05:41:34;;;;;;;27.40;18.23;;;9.30;89.80;;;;;;5076988;28;20451;-42
2021/10/19 05:44:00;;;;;;;24.97;18.80;;;9.30;89.80;;;;;;5074305;28;20802;-42
2021/10/19 05:46:27;;;;;;;20.70;16.60;;;9.30;89.80;;;;;;5077947;28;20950;-42
2021/10/19 05:48:54;;;;;;;21.70;18.37;;;9.30;89.80;;;;;;5074913;28;20445;-42
2021/10/19 05:51:21;;;;;;;25.47;19.07;;;9.30;89.80;;;;;;5057684;28;20477;-42
2021/10/19 05:53:48;;;;;;;26.93;18.20;;;9.30;89.80;;;;;;5077768;28;20441;-42
2021/10/19 05:56:14;;;;;;;23.63;18.40;;;9.30;89.80;;;;;;5076136;28;20453;-42
2021/10/19 05:58:41;;;;;;;26.50;19.00;;;9.30;89.80;;;;;;5075677;28;20472;-42
2021/10/19 06:01:08;;;;;;;23.43;17.90;;;9.30;89.80;;;;;;5075748;28;20454;-42
2021/10/19 06:03:35;;;;;;;25.20;17.87;;;9.30;89.80;;;;;;5060644;28;20498;-42
2021/10/19 06:06:08;;;;;;;25.60;18.23;;;9.30;89.80;;;;;;5074546;28;20484;-42
2021/10/19 06:08:35;;;;;;;25.43;18.17;;;9.30;89.80;;;;;;5074398;28;20453;-42
2021/10/19 06:11:01;;;;;;;25.40;18.83;;;9.30;89.80;;;;;;5075057;28;20488;-42
2021/10/19 06:13:28;;;;;;;24.43;18.10;;;9.30;89.80;;;;;;5076154;28;20857;-42
2021/10/19 06:15:55;;;;;;;23.60;16.90;;;9.30;89.80;;;;;;5076910;28;20958;-42
2021/10/19 06:18:24;;;;;;;24.83;17.40;;;9.30;89.80;;;;;;5056861;28;20461;-41
2021/10/19 06:20:52;;;;;;;21.73;16.63;;;9.30;89.80;;;;;;5076504;28;20943;-41
2021/10/19 06:23:19;;;;;;;25.60;17.50;;;9.30;89.80;;;;;;5075532;28;20460;-41
2021/10/19 06:25:47;;;;;;;22.17;17.13;;;9.30;89.80;;;;;;5078025;28;20458;-41
2021/10/19 06:28:13;;;;;;;21.33;16.60;;;9.40;89.80;;;;;;5058372;28;20820;-41
2021/10/19 06:30:40;;;;;;;21.83;17.03;;;9.30;89.80;;;;;;5079082;28;20481;-41
2021/10/19 06:33:07;;;;;;;23.40;16.60;;;9.30;89.80;;;;;;5064399;28;20578;-41
2021/10/19 06:35:34;;;;;;;23.40;18.20;;;9.30;89.80;;;;;;5080729;28;20975;-41
2021/10/19 06:38:00;;;;;;;22.43;16.50;;;9.30;89.80;;;;;;5076299;28;20460;-42
2021/10/19 06:40:27;;;;;;;17.70;14.87;;;9.30;89.80;;;;;;5073413;28;20471;-43
2021/10/19 06:42:54;;;;;;;17.57;14.57;;;9.30;89.80;;;;;;5078482;28;20449;-42
2021/10/19 06:45:21;;;;;;;18.83;14.97;;;9.40;89.80;;;;;;5074788;28;20446;-43
2021/10/19 06:47:47;;;;;;;19.60;14.40;;;9.40;89.80;;;;;;5075231;28;20957;-41
2021/10/19 06:50:14;;;;;;;20.03;13.87;;;9.40;89.80;;;;;;5077029;28;20448;-42
2021/10/19 06:52:41;;;;;;;18.07;14.37;;;9.40;89.80;;;;;;5075951;28;20485;-42
2021/10/19 06:55:08;;;;;;;20.80;14.83;;;9.40;89.80;;;;;;5077785;28;20489;-42
2021/10/19 06:57:42;;;;;;;16.50;12.90;;;9.40;89.80;;;;;;5075367;28;20446;-43
2021/10/19 07:00:11;;;;;;;18.23;13.47;;;9.40;89.80;;;;;;5074987;28;20468;-41
2021/10/19 07:02:42;;;;;;;13.17;11.17;;;9.40;89.80;;;;;;5075215;28;20472;-42
2021/10/19 07:05:09;;;;;;;16.10;12.00;;;9.40;89.80;;;;;;5076276;28;20449;-42
2021/10/19 07:07:39;;;;;;;14.90;12.03;;;9.40;89.80;;;;;;5076789;28;20461;-42
2021/10/19 07:10:07;;;;;;;17.03;13.33;;;9.40;89.80;;;;;;5073538;28;20488;-42
2021/10/19 07:12:36;;;;;;;13.80;10.40;;;9.40;89.80;;;;;;5064462;28;20493;-42
2021/10/19 07:15:04;;;;;;;13.20;10.97;;;9.50;89.80;;;;;;5075032;28;20446;-42
2021/10/19 07:17:31;;;;;;;14.37;10.13;;;9.50;89.80;;;;;;5068852;28;20842;-42
2021/10/19 07:19:58;;;;;;;15.03;10.17;;;9.50;89.80;;;;;;5074659;28;20453;-42
2021/10/19 07:22:28;;;;;;;18.30;12.20;;;9.50;89.80;;;;;;5077912;28;20457;-42
2021/10/19 07:24:55;;;;;;;13.37;9.93;;;9.50;89.80;;;;;;5078878;28;20544;-42
2021/10/19 07:27:22;;;;;;;13.77;10.20;;;9.50;89.80;;;;;;5073745;28;20461;-42
2021/10/19 07:29:49;;;;;;;12.77;10.30;;;9.50;89.80;;;;;;5073369;28;20988;-42
2021/10/19 07:32:15;;;;;;;10.63;8.53;;;9.50;89.80;;;;;;5073112;28;20850;-42
2021/10/19 07:34:42;;;;;;;8.93;7.43;;;9.50;89.80;;;;;;5079494;28;20464;-42
2021/10/19 07:37:09;;;;;;;9.13;7.83;;;9.50;89.80;;;;;;5072998;28;20450;-42
2021/10/19 07:39:36;;;;;;;8.73;7.53;;;9.50;89.80;;;;;;5072842;28;20856;-42
2021/10/19 07:42:03;;;;;;;8.60;6.80;;;9.60;89.80;;;;;;5074918;28;20444;-42
2021/10/19 07:44:30;;;;;;;9.23;6.90;;;9.60;89.80;;;;;;5070703;28;20685;-43
2021/10/19 07:46:56;;;;;;;8.47;6.50;;;9.60;89.80;;;;;;5055703;28;20986;-42
2021/10/19 07:49:23;;;;;;;9.07;6.13;;;9.50;89.80;;;;;;5057148;28;20446;-42
2021/10/19 07:51:51;;;;;;;9.20;6.83;;;9.50;89.80;;;;;;5069939;28;21031;-42
2021/10/19 07:54:18;;;;;;;6.30;5.60;;;9.60;89.80;;;;;;5072389;28;20499;-42
2021/10/19 07:56:44;;;;;;;6.13;5.37;;;9.60;89.80;;;;;;5076948;28;20902;-43
2021/10/19 07:59:11;;;;;;;9.87;6.17;;;9.70;89.80;;;;;;5074955;28;20475;-43
2021/10/19 08:01:38;;;;;;;6.00;4.97;;;9.60;89.80;;;;;;5063696;28;20462;-43
2021/10/19 08:04:05;;;;;;;7.10;4.83;;;9.60;89.80;;;;;;5079546;28;20465;-43
2021/10/19 08:06:31;;;;;;;4.20;3.80;;;9.60;89.80;;;;;;5072237;28;20454;-43
2021/10/19 08:09:00;;;;;;;6.87;5.00;;;9.60;89.80;;;;;;5076322;28;20452;-43
2021/10/19 08:11:26;;;;;;;5.90;4.43;;;9.70;89.80;;;;;;5061159;28;20489;-43
2021/10/19 08:13:56;;;;;;;4.40;4.00;;;9.70;89.80;;;;;;5076562;28;20945;-43
2021/10/19 08:16:23;;;;;;;4.33;3.87;;;9.70;89.80;;;;;;5072945;28;20777;-42
2021/10/19 08:18:52;;;;;;;5.13;4.30;;;9.70;89.80;;;;;;5079175;28;20445;-43
2021/10/19 08:21:21;;;;;;;4.30;3.87;;;9.70;89.80;;;;;;5077093;28;20988;-42
2021/10/19 08:23:48;;;;;;;3.93;3.53;;;9.70;89.80;;;;;;5083001;28;20576;-43
2021/10/19 08:26:15;;;;;;;4.53;4.13;;;9.70;89.80;;;;;;5061273;28;20449;-43
2021/10/19 08:28:47;;;;;;;5.37;3.70;;;9.80;89.80;;;;;;5077322;28;20457;-42
2021/10/19 08:31:15;;;;;;;4.00;3.60;;;9.80;89.80;;;;;;5075641;28;20517;-43
2021/10/19 08:33:45;;;;;;;4.47;4.10;;;9.80;89.80;;;;;;5078671;28;20453;-42
2021/10/19 08:36:13;;;;;;;4.73;4.33;;;9.90;89.80;;;;;;5078261;28;20967;-44
2021/10/19 08:38:40;;;;;;;4.70;4.07;;;9.90;89.80;;;;;;5079149;28;20457;-43
2021/10/19 08:41:07;;;;;;;4.17;3.77;;;9.90;89.80;;;;;;5078370;28;20456;-43
2021/10/19 08:43:33;;;;;;;4.90;3.70;;;10.00;89.80;;;;;;5074837;28;20454;-42
2021/10/19 08:46:00;;;;;;;4.90;4.40;;;10.00;89.80;;;;;;5080076;28;20442;-42
2021/10/19 08:48:27;;;;;;;7.40;4.30;;;10.00;89.80;;;;;;5078202;28;20450;-42
2021/10/19 08:50:56;;;;;;;4.37;3.87;;;10.00;89.80;;;;;;5076887;28;20458;-42
2021/10/19 08:53:23;;;;;;;4.37;3.97;;;10.00;89.80;;;;;;5077614;28;20945;-42
2021/10/19 08:55:50;;;;;;;6.23;4.47;;;10.10;89.80;;;;;;5078828;28;20488;-42
2021/10/19 08:58:17;;;;;;;5.40;4.60;;;10.10;89.80;;;;;;5078896;28;20457;-43
2021/10/19 09:00:44;;;;;;;4.70;3.97;;;10.10;89.80;;;;;;5079122;28;20444;-43
2021/10/19 09:03:12;;;;;;;5.37;4.10;;;10.10;89.80;;;;;;5077356;28;20492;-43
2021/10/19 09:05:45;;;;;;;5.20;3.97;;;10.10;89.80;;;;;;5065481;28;20493;-43
2021/10/19 09:08:12;;;;;;;4.67;4.17;;;10.10;89.80;;;;;;5061492;28;20946;-43
2021/10/19 09:10:41;;;;;;;5.73;4.50;;;10.10;89.80;;;;;;5078154;28;20464;-44
2021/10/19 09:13:15;;;;;;;4.23;3.83;;;10.10;89.80;;;;;;5078129;28;20569;-44
2021/10/19 09:15:44;;;;;;;4.73;4.10;;;10.20;89.80;;;;;;5061170;28;20941;-44
2021/10/19 09:18:13;;;;;;;5.30;4.80;;;10.20;89.80;;;;;;5065080;28;20450;-43
2021/10/19 09:20:42;;;;;;;5.30;4.80;;;10.20;89.80;;;;;;5060510;28;20491;-43
2021/10/19 09:23:13;;;;;;;6.33;4.90;;;10.20;89.80;;;;;;5077800;28;20466;-43
2021/10/19 09:25:45;;;;;;;9.13;4.60;;;10.20;89.80;;;;;;5076287;28;20450;-42
2021/10/19 09:28:15;;;;;;;5.73;4.93;;;10.20;89.80;;;;;;5075628;28;20449;-42
2021/10/19 09:30:50;;;;;;;5.37;4.87;;;10.20;89.80;;;;;;5055608;28;20461;-43
2021/10/19 09:33:19;;;;;;;8.27;5.00;;;10.30;89.80;;;;;;5075772;28;21004;-42
2021/10/19 09:35:53;;;;;;;5.83;5.07;;;10.30;89.80;;;;;;5059481;28;20458;-44
2021/10/19 09:38:20;;;;;;;7.80;5.60;;;10.30;89.80;;;;;;5074099;28;20807;-43
2021/10/19 09:40:53;;;;;;;5.70;5.03;;;10.30;89.80;;;;;;5078155;28;20453;-43
2021/10/19 09:43:30;;;;;;;5.83;5.13;;;10.40;89.80;;;;;;5078723;28;20452;-42
2021/10/19 09:46:02;;;;;;;5.93;5.33;;;10.40;89.80;;;;;;5077747;28;20529;-42
2021/10/19 09:48:31;;;;;;;6.87;5.60;;;10.40;89.80;;;;;;5077137;28;20804;-42
2021/10/19 09:50:59;;;;;;;9.43;6.53;;;10.50;89.80;;;;;;5079106;28;20454;-44
2021/10/19 09:53:27;;;;;;;8.97;6.50;;;10.50;89.80;;;;;;5075457;28;20553;-42
2021/10/19 09:55:56;;;;;;;8.87;6.93;;;10.50;89.80;;;;;;5075631;28;20536;-42
2021/10/19 09:58:23;;;;;;;8.10;6.77;;;10.60;89.80;;;;;;5056165;28;20462;-42
2021/10/19 10:00:51;;;;;;;8.50;7.50;;;10.60;89.80;;;;;;5076678;28;20449;-43
2021/10/19 10:03:18;;;;;;;7.40;6.50;;;10.70;89.80;;;;;;5076375;28;20482;-43
2021/10/19 10:05:45;;;;;;;8.37;6.63;;;10.70;89.80;;;;;;5059396;28;20452;-42
2021/10/19 10:08:17;;;;;;;8.07;6.40;;;10.70;89.80;;;;;;5063317;28;21101;-42
2021/10/19 10:10:44;;;;;;;8.80;7.90;;;10.80;89.80;;;;;;5082388;28;21022;-43
2021/10/19 10:13:15;;;;;;;7.50;6.70;;;10.80;89.80;;;;;;5075100;28;20495;-42
2021/10/19 10:15:42;;;;;;;11.60;9.17;;;10.80;89.80;;;;;;5077734;28;20476;-43
2021/10/19 10:18:11;;;;;;;9.80;8.03;;;10.80;89.80;;;;;;5076062;28;20444;-43
2021/10/19 10:20:44;;;;;;;10.03;8.70;;;10.80;89.80;;;;;;5079064;28;20449;-42
2021/10/19 10:23:16;;;;;;;13.13;8.43;;;10.80;89.80;;;;;;5061757;28;20565;-42
2021/10/19 10:25:45;;;;;;;10.17;9.10;;;10.90;89.80;;;;;;5076686;28;20473;-42
2021/10/19 10:28:33;;;;;;;9.40;8.40;;;10.90;89.80;;;;;;5063437;28;20454;-42
2021/10/19 10:31:05;;;;;;;10.90;8.43;;;10.90;89.80;;;;;;5074539;28;20469;-42
2021/10/19 10:33:31;;;;;;;10.60;8.90;;;10.90;89.80;;;;;;5074732;28;20470;-42
2021/10/19 10:36:03;;;;;;;14.43;9.77;;;10.90;89.80;;;;;;5079758;28;20445;-42
2021/10/19 10:38:30;;;;;;;12.47;10.10;;;10.90;89.80;;;;;;5076069;28;20458;-43
2021/10/19 10:41:12;;;;;;;11.17;9.20;;;10.90;89.80;;;;;;5077636;28;20445;-44
2021/10/19 10:43:41;;;;;;;12.37;9.77;;;10.90;89.80;;;;;;5058566;28;20863;-43
2021/10/19 10:46:19;;;;;;;13.90;11.03;;;10.90;89.80;;;;;;5060723;28;21034;-44
2021/10/19 10:48:47;;;;;;;14.00;10.77;;;11.00;89.80;;;;;;5062616;28;20966;-43
2021/10/19 10:51:26;;;;;;;13.97;11.00;;;11.00;89.80;;;;;;5074355;28;20460;-43
2021/10/19 10:53:53;;;;;;;18.50;11.80;;;11.00;89.80;;;;;;5075345;28;20511;-43
2021/10/19 10:56:21;;;;;;;13.50;11.33;;;11.00;89.80;;;;;;5063245;28;20468;-43
2021/10/19 10:58:49;;;;;;;17.37;11.97;;;11.10;89.80;;;;;;5061689;28;20473;-43
2021/10/19 11:01:17;;;;;;;19.03;12.03;;;11.10;89.80;;;;;;5077537;28;20532;-43
2021/10/19 11:03:47;;;;;;;15.27;12.27;;;11.20;89.80;;;;;;5077163;28;20473;-43
2021/10/19 11:06:18;;;;;;;16.37;11.70;;;11.20;89.80;;;;;;5054736;28;20453;-43
2021/10/19 11:08:47;;;;;;;14.50;10.90;;;11.30;89.80;;;;;;5059499;28;20463;-43
2021/10/19 11:11:24;;;;;;;15.13;11.60;;;11.30;89.80;;;;;;5073830;28;21071;-43
2021/10/19 11:13:58;;;;;;;15.17;11.63;;;11.30;89.80;;;;;;5076736;28;21027;-43
2021/10/19 11:16:52;;;;;;;12.13;10.83;;;11.40;89.80;;;;;;5062616;28;20471;-43
2021/10/19 11:19:25;;;;;;;12.80;10.00;;;11.40;89.80;;;;;;5076830;28;21120;-43
2021/10/19 11:22:03;;;;;;;11.77;10.07;;;11.40;89.80;;;;;;5079410;28;20457;-43
2021/10/19 11:24:32;;;;;;;11.37;10.17;;;11.40;89.80;;;;;;5073745;28;20473;-43
2021/10/19 11:27:02;;;;;;;13.60;10.77;;;11.40;89.80;;;;;;5062759;28;20461;-43
2021/10/19 11:29:33;;;;;;;15.07;11.70;;;11.40;89.80;;;;;;5073210;28;20465;-43
2021/10/19 11:32:01;;;;;;;12.70;10.70;;;11.40;89.80;;;;;;5074029;28;20491;-43
2021/10/19 11:34:28;;;;;;;11.67;10.43;;;11.40;89.80;;;;;;5077021;28;20460;-43
2021/10/19 11:36:54;;;;;;;14.80;11.13;;;11.50;89.80;;;;;;5077134;28;20458;-43
2021/10/19 11:39:21;;;;;;;13.87;10.30;;;11.50;89.80;;;;;;5077665;28;20452;-43
2021/10/19 11:41:53;;;;;;;15.07;11.70;;;11.50;89.80;;;;;;5074919;28;20534;-43
2021/10/19 11:44:20;;;;;;;15.10;10.30;;;11.50;89.80;;;;;;5059930;28;20457;-43
2021/10/19 11:46:47;;;;;;;17.17;12.10;;;11.50;89.80;;;;;;5061467;28;20459;-43
2021/10/19 11:49:18;;;;;;;13.87;11.00;;;11.50;89.80;;;;;;5077247;28;20938;-43
2021/10/19 11:51:48;;;;;;;16.60;11.60;;;11.50;89.80;;;;;;5077641;28;20479;-43
2021/10/19 11:54:16;;;;;;;15.77;12.40;;;11.60;89.80;;;;;;5080158;28;20445;-43
2021/10/19 11:57:04;;;;;;;16.83;11.10;;;11.60;89.80;;;;;;5078450;28;20457;-43
2021/10/19 11:59:43;;;;;;;14.50;10.80;;;11.60;89.80;;;;;;5078751;28;20496;-43
2021/10/19 12:02:10;;;;;;;13.53;11.40;;;11.60;89.80;;;;;;5075909;28;20453;-43
2021/10/19 12:04:45;;;;;;;19.53;12.20;;;11.60;89.80;;;;;;5062132;28;20500;-43
2021/10/19 12:07:23;;;;;;;18.87;11.93;;;11.60;89.80;;;;;;5078115;28;20842;-43
2021/10/19 12:09:50;;;;;;;20.13;13.10;;;11.60;89.80;;;;;;5077646;28;20444;-43
2021/10/19 12:12:24;;;;;;;19.07;12.87;;;11.60;89.80;;;;;;5079697;28;20472;-43
2021/10/19 12:14:55;;;;;;;18.67;13.83;;;11.70;89.80;;;;;;5082731;28;20444;-42
2021/10/19 12:17:22;;;;;;;17.00;12.67;;;11.70;89.80;;;;;;5079920;28;20449;-43
2021/10/19 12:20:06;;;;;;;16.43;13.20;;;11.70;89.80;;;;;;5077365;28;20441;-43
2021/10/19 12:22:35;;;;;;;18.93;14.07;;;11.70;89.80;;;;;;5062867;28;20844;-43
2021/10/19 12:25:07;;;;;;;21.43;14.00;;;11.70;89.80;;;;;;5078729;28;20484;-43
2021/10/19 12:27:35;;;;;;;22.00;14.70;;;11.80;89.80;;;;;;5073613;28;20540;-43
2021/10/19 12:30:03;;;;;;;19.40;13.83;;;11.80;89.80;;;;;;5078900;28;20461;-43
2021/10/19 12:32:32;;;;;;;24.50;14.63;;;11.80;89.80;;;;;;5062941;28;20488;-43
2021/10/19 12:35:00;;;;;;;25.20;15.03;;;11.80;89.80;;;;;;5074395;28;20523;-43
2021/10/19 12:37:32;;;;;;;24.90;15.63;;;11.90;89.80;;;;;;5064097;28;20456;-43
2021/10/19 12:40:00;;;;;;;19.80;14.50;;;11.90;89.80;;;;;;5078822;28;20446;-43
2021/10/19 12:42:27;;;;;;;20.70;15.27;;;11.90;89.80;;;;;;5062272;28;20957;-43